Time;durP1;ratioP1;P1;durP2;ratioP2;P2;SDS_P1;SDS_P2;PMS_P1;PMS_P2;Temp;Humidity;BMP_temperature;BMP_pressure;BME280_temperature;BME280_humidity;BME280_pressure;Samples;Min_cycle;Max_cycle;Signal;HPM_P1;HPM_P2
2022/08/06 00:02:55;;;;;;;;;;;;;;;23.78;99.68;100331.84;10027126;29;19939;-72
2022/08/06 00:07:58;;;;;;;;;;;;;;;23.73;99.30;100323.31;10026159;29;19928;-72
2022/08/06 00:13:05;;;;;;;;;;;;;;;23.67;98.93;100332.53;10026970;29;19933;-70
2022/08/06 00:18:16;;;;;;;;;;;;;;;23.65;98.67;100336.22;10026422;29;19929;-69
2022/08/06 00:23:20;;;;;;;;;;;;;;;23.63;97.94;100340.78;10026101;29;19946;-67
2022/08/06 00:28:27;;;;;;;;;;;;;;;23.58;97.70;100338.44;10026047;29;20387;-71
2022/08/06 00:33:33;;;;;;;;;;;;;;;23.56;96.50;100329.72;10026007;29;19943;-70
2022/08/06 00:38:57;;;;;;;;;;;;;;;23.51;97.89;100325.66;10025569;29;19939;-67
2022/08/06 00:44:03;;;;;;;;;;;;;;;23.48;98.53;100341.75;10025088;29;19928;-66
2022/08/06 00:49:09;;;;;;;;;;;;;;;23.40;98.77;100349.34;10025382;29;19928;-66
2022/08/06 00:54:13;;;;;;;;;;;;;;;23.49;97.20;100339.00;10025034;29;19939;-70
2022/08/06 00:59:21;;;;;;;;;;;;;;;23.40;97.79;100359.94;10025157;29;19935;-69
2022/08/06 01:04:24;;;;;;;;;;;;;;;23.47;97.06;100362.09;10024741;29;19940;-71
2022/08/06 01:09:29;;;;;;;;;;;;;;;23.43;96.93;100338.53;10024610;29;19939;-67
2022/08/06 01:14:35;;;;;;;;;;;;;;;23.39;97.90;100337.03;10024503;29;19928;-70
2022/08/06 01:19:47;;;;;;;;;;;;;;;23.28;98.49;100327.09;10024517;29;19932;-70
2022/08/06 01:25:27;;;;;;;;;;;;;;;23.22;100.00;100340.72;10024359;29;19928;-68
2022/08/06 01:30:53;;;;;;;;;;;;;;;23.24;100.00;100343.25;10024257;29;19928;-70
2022/08/06 01:36:00;;;;;;;;;;;;;;;23.22;100.00;100345.16;10024486;29;19928;-69
2022/08/06 01:41:05;;;;;;;;;;;;;;;23.15;100.00;100343.81;10023792;29;20331;-69
2022/08/06 01:46:11;;;;;;;;;;;;;;;23.12;100.00;100338.72;10023730;29;19935;-68
2022/08/06 01:51:18;;;;;;;;;;;;;;;23.03;100.00;100331.34;10023577;29;20248;-70
2022/08/06 01:56:45;;;;;;;;;;;;;;;22.99;100.00;100343.09;10023474;29;20023;-69
2022/08/06 02:02:03;;;;;;;;;;;;;;;22.98;100.00;100334.28;10023708;29;19928;-69
2022/08/06 02:07:09;;;;;;;;;;;;;;;22.96;100.00;100333.50;10023443;29;19929;-66
2022/08/06 02:12:33;;;;;;;;;;;;;;;22.96;100.00;100322.06;10023446;29;20027;-68
2022/08/06 02:17:43;;;;;;;;;;;;;;;23.01;100.00;100319.97;10023386;29;20373;-67
2022/08/06 02:23:07;;;;;;;;;;;;;;;22.95;100.00;100325.69;10023543;29;19936;-68
2022/08/06 02:28:13;;;;;;;;;;;;;;;23.00;100.00;100320.94;10024785;29;19938;-69
2022/08/06 02:33:29;;;;;;;;;;;;;;;22.97;100.00;100318.50;10030400;29;20339;-68
2022/08/06 02:38:54;;;;;;;;;;;;;;;22.89;100.00;100314.50;10030320;29;19939;-70
2022/08/06 02:44:01;;;;;;;;;;;;;;;22.89;100.00;100319.81;10030001;29;20366;-71
2022/08/06 02:49:10;;;;;;;;;;;;;;;22.89;100.00;100329.53;10030362;29;20239;-68
2022/08/06 02:54:18;;;;;;;;;;;;;;;22.83;100.00;100329.94;10029343;29;19932;-66
2022/08/06 02:59:25;;;;;;;;;;;;;;;22.77;100.00;100325.00;10029620;29;19929;-66
2022/08/06 03:04:37;;;;;;;;;;;;;;;22.81;100.00;100332.63;10029320;29;19992;-70
2022/08/06 03:09:41;;;;;;;;;;;;;;;22.86;100.00;100346.47;10029151;29;19928;-67
2022/08/06 03:14:54;;;;;;;;;;;;;;;22.79;100.00;100341.63;10028767;29;19936;-68
2022/08/06 03:20:16;;;;;;;;;;;;;;;22.79;100.00;100339.84;10029045;29;19939;-68
2022/08/06 03:25:20;;;;;;;;;;;;;;;22.79;100.00;100355.72;10028460;29;19938;-70
2022/08/06 03:30:26;;;;;;;;;;;;;;;22.72;100.00;100357.03;10028661;29;19929;-68
2022/08/06 03:35:36;;;;;;;;;;;;;;;22.72;100.00;100354.41;10027947;29;19985;-68
2022/08/06 03:40:54;;;;;;;;;;;;;;;22.69;100.00;100365.13;10027532;29;19940;-68
2022/08/06 03:46:00;;;;;;;;;;;;;;;22.65;100.00;100368.94;10027874;29;20300;-67
2022/08/06 03:51:06;;;;;;;;;;;;;;;22.67;100.00;100374.13;10027335;29;19929;-68
2022/08/06 03:56:14;;;;;;;;;;;;;;;22.73;100.00;100373.75;10027606;29;19928;-66
2022/08/06 04:01:21;;;;;;;;;;;;;;;22.74;100.00;100376.31;10027400;29;19984;-71
2022/08/06 04:06:26;;;;;;;;;;;;;;;22.84;100.00;100369.53;10026806;29;19929;-69
2022/08/06 04:11:30;;;;;;;;;;;;;;;22.95;100.00;100381.28;10026691;29;19936;-71
2022/08/06 04:16:53;;;;;;;;;;;;;;;22.97;100.00;100379.38;10026486;29;19940;-70
2022/08/06 04:21:58;;;;;;;;;;;;;;;23.02;100.00;100401.13;10026312;29;19944;-67
2022/08/06 04:27:22;;;;;;;;;;;;;;;23.02;99.99;100394.03;10026165;29;20031;-70
2022/08/06 04:32:32;;;;;;;;;;;;;;;23.01;99.99;100402.94;10026102;29;19939;-68
2022/08/06 04:37:37;;;;;;;;;;;;;;;22.99;100.00;100414.56;10026080;29;19929;-68
2022/08/06 04:42:42;;;;;;;;;;;;;;;22.85;100.00;100429.47;10025648;29;19928;-70
2022/08/06 04:47:46;;;;;;;;;;;;;;;22.81;100.00;100440.34;10025354;29;20278;-69
2022/08/06 04:52:51;;;;;;;;;;;;;;;22.78;100.00;100451.94;9358575;29;10000709;-67
2022/08/06 04:57:54;;;;;;;;;;;;;;;22.82;100.00;100449.97;10060265;29;19928;-67
2022/08/06 05:03:05;;;;;;;;;;;;;;;22.84;100.00;100456.91;10059895;29;19928;-72
2022/08/06 05:08:14;;;;;;;;;;;;;;;22.78;100.00;100475.78;10059666;29;19932;-68
2022/08/06 05:13:20;;;;;;;;;;;;;;;22.67;100.00;100482.63;10059600;29;20388;-69
2022/08/06 05:18:44;;;;;;;;;;;;;;;22.66;100.00;100484.41;10079574;29;19928;-71
2022/08/06 05:24:08;;;;;;;;;;;;;;;22.62;100.00;100477.59;10098236;29;19928;-73
2022/08/06 05:29:12;;;;;;;;;;;;;;;22.70;100.00;100474.50;10097535;29;20496;-72
2022/08/06 05:34:16;;;;;;;;;;;;;;;22.90;100.00;100493.59;10097193;29;20364;-72
2022/08/06 05:39:22;;;;;;;;;;;;;;;22.85;100.00;100521.25;10097187;29;20025;-74
2022/08/06 05:44:45;;;;;;;;;;;;;;;22.82;100.00;100566.44;10096995;29;19927;-70
2022/08/06 05:49:53;;;;;;;;;;;;;;;22.88;100.00;100582.00;10097485;29;19979;-72
2022/08/06 05:55:06;;;;;;;;;;;;;;;22.88;100.00;100596.06;10076652;29;20024;-72
2022/08/06 06:00:15;;;;;;;;;;;;;;;22.90;100.00;100606.56;10058527;29;19928;-73
2022/08/06 06:05:39;;;;;;;;;;;;;;;22.89;100.00;100605.72;10065647;29;19932;-71
2022/08/06 06:11:03;;;;;;;;;;;;;;;22.87;100.00;100614.69;10066237;29;19928;-71
2022/08/06 06:16:10;;;;;;;;;;;;;;;22.78;100.00;100621.34;10065856;29;19936;-72
2022/08/06 06:21:29;;;;;;;;;;;;;;;22.77;100.00;100635.53;10066525;29;19936;-67
2022/08/06 06:26:39;;;;;;;;;;;;;;;22.76;100.00;100625.88;10065417;29;20354;-69
2022/08/06 06:31:48;;;;;;;;;;;;;;;22.82;100.00;100638.78;10065408;29;19928;-72
2022/08/06 06:37:14;;;;;;;;;;;;;;;22.82;100.00;100649.38;10065070;29;19991;-70
2022/08/06 06:42:22;;;;;;;;;;;;;;;22.79;100.00;100659.28;10064534;29;20033;-72
2022/08/06 06:47:41;;;;;;;;;;;;;;;22.82;100.00;100673.19;10064765;29;19928;-71
2022/08/06 06:52:45;;;;;;;;;;;;;;;22.86;100.00;100676.53;10062219;29;19928;-72
2022/08/06 06:57:52;;;;;;;;;;;;;;;22.85;100.00;100675.66;10026129;29;19933;-71
2022/08/06 07:02:58;;;;;;;;;;;;;;;22.79;100.00;100686.63;10026087;29;20031;-73
2022/08/06 07:08:03;;;;;;;;;;;;;;;22.79;100.00;100683.97;10025709;29;19928;-71
2022/08/06 07:13:10;;;;;;;;;;;;;;;22.88;100.00;100682.59;10027096;29;20358;-72
2022/08/06 07:18:18;;;;;;;;;;;;;;;22.88;100.00;100712.56;10028685;29;19929;-73
2022/08/06 07:23:33;;;;;;;;;;;;;;;22.84;100.00;100705.75;10028407;29;20366;-73
2022/08/06 07:28:58;;;;;;;;;;;;;;;22.78;100.00;100719.28;10028335;29;19939;-73
2022/08/06 07:34:05;;;;;;;;;;;;;;;22.74;100.00;100736.28;10028092;29;20274;-75
2022/08/06 07:39:14;;;;;;;;;;;;;;;22.71;100.00;100739.09;10027795;29;20315;-73
2022/08/06 07:44:20;;;;;;;;;;;;;;;22.60;100.00;100741.47;10027733;29;19955;-73
2022/08/06 07:49:36;;;;;;;;;;;;;;;22.36;100.00;100739.22;10027542;29;19938;-71
2022/08/06 07:55:00;;;;;;;;;;;;;;;22.18;100.00;100745.47;10027218;29;20293;-73
2022/08/06 08:00:07;;;;;;;;;;;;;;;22.11;100.00;100759.94;10027394;29;19928;-74
2022/08/06 08:10:42;;;;;;;;;;;;;;;21.93;100.00;100774.94;9704724;29;10000197;-65
2022/08/06 08:15:47;;;;;;;;;;;;;;;21.72;100.00;100790.06;10061654;29;20258;-68
2022/08/06 08:20:53;;;;;;;;;;;;;;;21.59;100.00;100793.34;10061696;29;19958;-66
2022/08/06 08:25:57;;;;;;;;;;;;;;;21.52;100.00;100808.63;10060111;29;19938;-68
2022/08/06 08:31:03;;;;;;;;;;;;;;;21.57;100.00;100813.72;10061463;29;19928;-68
2022/08/06 08:36:23;;;;;;;;;;;;;;;21.54;100.00;100817.34;10060840;29;19938;-68
2022/08/06 08:41:34;;;;;;;;;;;;;;;21.42;100.00;100846.97;10060782;29;20622;-65
2022/08/06 08:46:52;;;;;;;;;;;;;;;21.45;100.00;100893.56;10061342;29;19928;-64
2022/08/06 08:52:01;;;;;;;;;;;;;;;21.43;100.00;100927.09;10060162;29;19950;-71
2022/08/06 08:57:05;;;;;;;;;;;;;;;21.32;100.00;100953.13;10060245;29;20527;-70
2022/08/06 09:02:29;;;;;;;;;;;;;;;21.26;100.00;100958.69;10059759;29;19928;-66
2022/08/06 09:07:33;;;;;;;;;;;;;;;21.17;100.00;100946.75;10059578;29;19928;-66
2022/08/06 09:12:38;;;;;;;;;;;;;;;21.17;100.00;100941.47;10059878;29;19928;-70
2022/08/06 09:17:50;;;;;;;;;;;;;;;21.15;100.00;100943.31;10059770;29;19928;-69
2022/08/06 09:23:15;;;;;;;;;;;;;;;21.10;100.00;100949.72;10059356;29;19928;-76
2022/08/06 09:28:32;;;;;;;;;;;;;;;21.11;100.00;100949.66;10059301;29;19987;-72
2022/08/06 09:33:40;;;;;;;;;;;;;;;21.04;100.00;100968.44;10059386;29;20376;-71
2022/08/06 09:39:05;;;;;;;;;;;;;;;20.85;100.00;100984.19;10058777;29;19964;-75
2022/08/06 09:44:13;;;;;;;;;;;;;;;20.87;100.00;100994.69;10059438;29;20007;-71
2022/08/06 09:49:45;;;;;;;;;;;;;;;20.88;100.00;100991.13;10059312;29;19939;-71
2022/08/06 09:55:02;;;;;;;;;;;;;;;20.78;100.00;101006.47;10058945;29;19932;-74
2022/08/06 10:00:26;;;;;;;;;;;;;;;20.91;100.00;101005.06;10058699;29;19928;-72
2022/08/06 10:05:32;;;;;;;;;;;;;;;20.88;100.00;101001.69;10058442;29;20425;-72
2022/08/06 10:10:52;;;;;;;;;;;;;;;20.78;100.00;101001.19;10027431;29;19928;-70
2022/08/06 10:15:57;;;;;;;;;;;;;;;20.73;100.00;101002.31;10020481;29;19932;-72
2022/08/06 10:21:06;;;;;;;;;;;;;;;20.71;100.00;100993.63;10020181;29;20361;-70
2022/08/06 10:26:10;;;;;;;;;;;;;;;20.71;100.00;101012.09;10020042;29;19939;-73
2022/08/06 10:31:17;;;;;;;;;;;;;;;20.68;100.00;101031.53;10019860;29;19928;-72
2022/08/06 10:36:26;;;;;;;;;;;;;;;20.68;100.00;101037.66;10020133;29;19989;-71
2022/08/06 10:41:34;;;;;;;;;;;;;;;20.59;100.00;101055.63;10019746;29;20280;-72
2022/08/06 10:47:00;;;;;;;;;;;;;;;20.49;100.00;101070.97;10020138;29;19961;-72
2022/08/06 10:52:10;;;;;;;;;;;;;;;20.49;100.00;101060.44;10024708;29;19979;-70
2022/08/06 10:57:19;;;;;;;;;;;;;;;20.44;100.00;101072.06;10026080;29;19929;-72
2022/08/06 11:02:43;;;;;;;;;;;;;;;20.41;100.00;101069.56;10025969;29;19929;-70
2022/08/06 11:08:12;;;;;;;;;;;;;;;20.36;100.00;101082.91;10034636;29;19995;-66
2022/08/06 11:13:38;;;;;;;;;;;;;;;20.27;100.00;101080.66;10064351;29;19936;-67
2022/08/06 11:18:59;;;;;;;;;;;;;;;20.25;100.00;101084.25;10063793;29;20339;-69
2022/08/06 11:24:11;;;;;;;;;;;;;;;20.18;100.00;101078.34;10063389;29;19954;-69
2022/08/06 11:29:16;;;;;;;;;;;;;;;20.14;100.00;101066.16;10063310;29;19940;-68
2022/08/06 11:34:21;;;;;;;;;;;;;;;20.17;100.00;101073.16;10063042;29;20293;-66
2022/08/06 11:40:05;;;;;;;;;;;;;;;20.14;100.00;101074.06;10062947;29;19957;-68
2022/08/06 11:45:08;;;;;;;;;;;;;;;20.11;100.00;101079.47;10063145;29;19928;-67
2022/08/06 11:50:32;;;;;;;;;;;;;;;19.96;100.00;101089.72;10062304;29;20011;-66
2022/08/06 11:56:03;;;;;;;;;;;;;;;19.98;100.00;101094.03;10062197;29;20002;-67
2022/08/06 12:01:06;;;;;;;;;;;;;;;19.92;100.00;101088.97;10061949;29;19936;-69
2022/08/06 12:06:30;;;;;;;;;;;;;;;19.88;100.00;101091.78;10061859;29;19939;-70
2022/08/06 12:11:35;;;;;;;;;;;;;;;19.90;100.00;101098.69;10061902;29;19991;-73
2022/08/06 12:16:40;;;;;;;;;;;;;;;19.89;100.00;101106.66;10061654;29;20027;-70
2022/08/06 12:21:56;;;;;;;;;;;;;;;19.87;100.00;101119.91;10061318;29;20326;-73
2022/08/06 12:27:01;;;;;;;;;;;;;;;19.89;100.00;101122.47;10061508;29;19928;-74
2022/08/06 12:32:20;;;;;;;;;;;;;;;19.83;100.00;101120.91;10061108;29;20304;-64
2022/08/06 12:37:36;;;;;;;;;;;;;;;19.84;100.00;101122.66;10060883;29;19960;-63
2022/08/06 12:42:50;;;;;;;;;;;;;;;19.88;100.00;101136.59;10060415;29;19932;-65
2022/08/06 12:47:58;;;;;;;;;;;;;;;19.88;100.00;101145.31;10060352;29;19928;-65
2022/08/06 12:53:08;;;;;;;;;;;;;;;19.87;100.00;101140.13;10060118;29;19936;-65
2022/08/06 12:58:15;;;;;;;;;;;;;;;20.03;100.00;101130.75;10059774;29;19943;-66
2022/08/06 13:03:40;;;;;;;;;;;;;;;20.23;100.00;101137.03;10057857;29;19939;-63
2022/08/06 13:08:51;;;;;;;;;;;;;;;20.44;100.00;101136.25;10059595;29;19928;-63
2022/08/06 13:13:56;;;;;;;;;;;;;;;20.79;100.00;101134.00;10058057;29;19954;-64
2022/08/06 13:19:20;;;;;;;;;;;;;;;20.80;100.00;101139.22;10059228;29;19928;-68
2022/08/06 13:24:34;;;;;;;;;;;;;;;20.82;100.00;101133.88;10059176;29;19928;-72
2022/08/06 13:29:59;;;;;;;;;;;;;;;21.71;100.00;101123.94;10059247;29;20015;-73
2022/08/06 13:35:26;;;;;;;;;;;;;;;22.10;100.00;101123.16;10058638;29;19960;-72
2022/08/06 13:40:39;;;;;;;;;;;;;;;21.84;100.00;101137.53;10058038;29;19940;-74
2022/08/06 13:45:53;;;;;;;;;;;;;;;21.76;100.00;101135.19;10056823;29;19973;-72
2022/08/06 13:50:59;;;;;;;;;;;;;;;21.63;100.00;101139.28;10057112;29;19983;-74
2022/08/06 13:56:02;;;;;;;;;;;;;;;21.58;100.00;101141.28;10058567;29;19928;-72
2022/08/06 14:01:06;;;;;;;;;;;;;;;21.59;100.00;101144.75;10058263;29;19928;-73
2022/08/06 14:06:09;;;;;;;;;;;;;;;21.58;100.00;101145.69;10058309;29;19944;-70
2022/08/06 14:11:16;;;;;;;;;;;;;;;21.55;100.00;101140.53;10024320;29;20001;-72
2022/08/06 14:16:24;;;;;;;;;;;;;;;21.87;100.00;101140.03;10019688;29;20255;-72
2022/08/06 14:21:27;;;;;;;;;;;;;;;22.37;100.00;101138.63;10020129;29;19935;-75
2022/08/06 14:26:30;;;;;;;;;;;;;;;22.46;100.00;101140.84;10027980;29;19935;-68
2022/08/06 14:31:37;;;;;;;;;;;;;;;22.37;100.00;101143.91;10047671;29;20082;-71
2022/08/06 14:36:59;;;;;;;;;;;;;;;22.75;100.00;101145.66;10049100;29;20530;-69
2022/08/06 14:47:27;;;;;;;;;;;;;;;22.38;100.00;101148.25;10055328;29;19939;-67
2022/08/06 14:52:50;;;;;;;;;;;;;;;22.15;100.00;101151.09;10064820;29;19928;-71
2022/08/06 14:57:56;;;;;;;;;;;;;;;21.96;100.00;101144.06;10064795;29;19938;-69
2022/08/06 15:03:12;;;;;;;;;;;;;;;21.75;100.00;101151.09;10064303;29;19928;-70
2022/08/06 15:08:17;;;;;;;;;;;;;;;21.52;100.00;101151.22;10064833;29;19929;-67
2022/08/06 15:13:21;;;;;;;;;;;;;;;21.64;100.00;101154.19;10061886;29;19996;-71
2022/08/06 15:18:42;;;;;;;;;;;;;;;22.14;99.92;101153.81;10025323;29;20430;-69
2022/08/06 15:24:05;;;;;;;;;;;;;;;22.18;99.74;101152.72;10056406;29;19928;-70
2022/08/06 15:29:10;;;;;;;;;;;;;;;22.12;97.87;101151.25;10063590;29;20555;-72
2022/08/06 15:34:20;;;;;;;;;;;;;;;22.08;97.87;101151.44;10062264;29;20027;-69
2022/08/06 15:39:30;;;;;;;;;;;;;;;22.11;96.64;101156.59;10062294;29;19940;-69
2022/08/06 15:44:53;;;;;;;;;;;;;;;22.15;96.71;101153.75;10062741;29;19942;-71
2022/08/06 15:49:58;;;;;;;;;;;;;;;22.08;96.54;101146.16;10062796;29;19929;-70
2022/08/06 15:55:07;;;;;;;;;;;;;;;22.22;94.96;101139.31;10061794;29;19928;-68
2022/08/06 16:00:18;;;;;;;;;;;;;;;22.40;94.79;101143.75;10062042;29;19928;-68
2022/08/06 16:05:26;;;;;;;;;;;;;;;22.36;93.98;101136.91;10061360;29;19991;-70
2022/08/06 16:10:49;;;;;;;;;;;;;;;22.28;92.87;101138.19;10053719;29;19939;-69
2022/08/06 16:15:53;;;;;;;;;;;;;;;22.17;92.04;101136.03;10061701;29;19948;-68
2022/08/06 16:20:58;;;;;;;;;;;;;;;22.07;93.18;101129.41;10061064;29;19928;-69
2022/08/06 16:26:08;;;;;;;;;;;;;;;22.02;91.05;101130.56;10061071;29;20023;-69
2022/08/06 16:31:33;;;;;;;;;;;;;;;21.93;90.31;101137.13;10061427;29;20305;-69
2022/08/06 16:36:50;;;;;;;;;;;;;;;21.91;91.05;101133.69;10060857;29;19928;-70
2022/08/06 16:41:55;;;;;;;;;;;;;;;21.84;90.26;101140.19;10060853;29;19932;-68
2022/08/06 16:47:01;;;;;;;;;;;;;;;21.82;91.31;101142.03;10059992;29;19928;-69
2022/08/06 16:52:09;;;;;;;;;;;;;;;21.77;89.94;101147.53;10060231;29;19984;-70
2022/08/06 16:57:32;;;;;;;;;;;;;;;21.65;89.45;101140.09;10060113;29;19928;-72
2022/08/06 17:02:41;;;;;;;;;;;;;;;21.57;88.27;101149.28;10059660;29;20321;-68
2022/08/06 17:07:47;;;;;;;;;;;;;;;21.51;86.93;101150.38;10052838;29;19981;-68
2022/08/06 17:13:10;;;;;;;;;;;;;;;21.40;87.94;101165.81;10021605;29;19936;-67
2022/08/06 17:18:33;;;;;;;;;;;;;;;21.27;89.27;101166.38;10021144;29;19929;-66
2022/08/06 17:23:41;;;;;;;;;;;;;;;21.21;90.20;101167.50;10021979;29;19940;-67
2022/08/06 17:28:49;;;;;;;;;;;;;;;21.14;91.06;101166.00;10021656;29;19928;-67
2022/08/06 17:33:52;;;;;;;;;;;;;;;21.01;92.13;101169.22;10025369;29;19939;-68
2022/08/06 17:38:59;;;;;;;;;;;;;;;20.95;93.81;101169.44;10058760;29;20026;-68
2022/08/06 17:44:13;;;;;;;;;;;;;;;20.88;95.57;101166.16;10058672;29;19928;-68
2022/08/06 17:49:19;;;;;;;;;;;;;;;20.78;97.03;101167.44;10058697;29;20362;-71
2022/08/06 17:54:25;;;;;;;;;;;;;;;20.69;97.68;101168.66;10058659;29;19928;-71
2022/08/06 17:59:48;;;;;;;;;;;;;;;20.60;99.82;101176.09;10062790;29;19932;-70
2022/08/06 18:04:52;;;;;;;;;;;;;;;20.50;100.00;101169.44;10066327;29;19963;-69
2022/08/06 18:15:22;;;;;;;;;;;;;;;20.38;100.00;101175.19;10066010;29;19931;-68
2022/08/06 18:20:42;;;;;;;;;;;;;;;20.26;100.00;101184.38;10066153;29;20015;-71
2022/08/06 18:25:49;;;;;;;;;;;;;;;20.13;100.00;101191.00;10075404;29;19928;-65
2022/08/06 18:31:00;;;;;;;;;;;;;;;20.12;100.00;101191.06;10063522;29;19934;-71
2022/08/06 18:36:07;;;;;;;;;;;;;;;20.03;100.00;101192.25;10063754;29;19999;-68
2022/08/06 18:41:13;;;;;;;;;;;;;;;19.93;100.00;101193.44;10063524;29;19951;-72
2022/08/06 18:46:19;;;;;;;;;;;;;;;19.93;100.00;101196.09;10065552;29;19929;-73
2022/08/06 18:51:42;;;;;;;;;;;;;;;19.91;100.00;101195.31;10065894;29;19928;-71
2022/08/06 18:56:50;;;;;;;;;;;;;;;19.93;100.00;101211.06;10065649;29;19939;-73
2022/08/06 19:01:53;;;;;;;;;;;;;;;19.85;100.00;101205.19;10066806;29;19928;-73
2022/08/06 19:06:58;;;;;;;;;;;;;;;19.86;100.00;101220.09;10067454;29;19960;-73
2022/08/06 19:12:05;;;;;;;;;;;;;;;19.90;100.00;101219.06;10065941;29;20072;-75
2022/08/06 19:17:50;;;;;;;;;;;;;;;19.87;100.00;101216.53;10066166;29;20257;-75
2022/08/06 19:23:32;;;;;;;;;;;;;;;19.85;100.00;101235.03;10063725;29;19939;-78
2022/08/06 19:28:56;;;;;;;;;;;;;;;19.79;100.00;101234.38;10061732;29;20073;-73
2022/08/06 19:34:04;;;;;;;;;;;;;;;19.76;100.00;101242.41;10065801;29;20246;-73
2022/08/06 19:45:25;;;;;;;;;;;;;;;19.70;100.00;101251.38;10058262;29;20376;-76
2022/08/06 19:50:50;;;;;;;;;;;;;;;19.71;100.00;101252.22;10065517;29;19936;-74
2022/08/06 19:55:53;;;;;;;;;;;;;;;19.72;100.00;101267.13;10065107;29;20277;-72
2022/08/06 20:01:17;;;;;;;;;;;;;;;19.58;100.00;101267.56;9726997;29;10000000;-68
2022/08/06 20:06:39;;;;;;;;;;;;;;;19.42;100.00;101271.59;10062036;29;20405;-68
2022/08/06 20:12:02;;;;;;;;;;;;;;;19.39;100.00;101276.97;10061791;29;19932;-70
2022/08/06 20:17:14;;;;;;;;;;;;;;;19.38;100.00;101280.50;10061535;29;20250;-69
2022/08/06 20:22:19;;;;;;;;;;;;;;;19.31;100.00;101287.72;10078387;29;19928;-69
2022/08/06 20:27:22;;;;;;;;;;;;;;;19.34;100.00;101286.78;10071767;29;19995;-70
2022/08/06 20:32:46;;;;;;;;;;;;;;;19.27;100.00;101293.97;10061438;29;19963;-70
2022/08/06 20:37:56;;;;;;;;;;;;;;;19.33;100.00;101298.19;10060951;29;19946;-70
2022/08/06 20:43:05;;;;;;;;;;;;;;;19.48;100.00;101292.47;10060763;29;19983;-70
2022/08/06 20:48:15;;;;;;;;;;;;;;;19.47;100.00;101296.88;10060773;29;20269;-71
2022/08/06 20:53:18;;;;;;;;;;;;;;;19.37;100.00;101307.75;10060443;29;19928;-70
2022/08/06 20:58:25;;;;;;;;;;;;;;;19.54;100.00;101310.72;10049512;29;19985;-67
2022/08/06 21:03:36;;;;;;;;;;;;;;;19.58;100.00;101317.63;10029059;29;20509;-76
2022/08/06 21:08:59;;;;;;;;;;;;;;;19.59;100.00;101311.41;10060041;29;19938;-74
2022/08/06 21:14:02;;;;;;;;;;;;;;;19.70;100.00;101311.09;10059642;29;20684;-78
2022/08/06 21:19:12;;;;;;;;;;;;;;;19.71;100.00;101321.56;10059701;29;20030;-75
2022/08/06 21:24:16;;;;;;;;;;;;;;;19.68;100.00;101316.41;10050482;29;19976;-74
2022/08/06 21:29:20;;;;;;;;;;;;;;;19.70;100.00;101324.25;10059939;29;20019;-75
2022/08/06 21:34:44;;;;;;;;;;;;;;;19.74;100.00;101326.75;10058903;29;20014;-74
2022/08/06 21:39:48;;;;;;;;;;;;;;;19.75;100.00;101328.47;10059121;29;19928;-73
2022/08/06 21:45:00;;;;;;;;;;;;;;;19.74;100.00;101325.88;10059006;29;20350;-66
2022/08/06 21:50:05;;;;;;;;;;;;;;;19.67;100.00;101337.53;10059090;29;19932;-68
2022/08/06 21:55:28;;;;;;;;;;;;;;;19.66;100.00;101344.56;10059248;29;19938;-70
2022/08/06 22:00:51;;;;;;;;;;;;;;;19.55;100.00;101347.53;10058930;29;19933;-69
2022/08/06 22:05:59;;;;;;;;;;;;;;;19.44;100.00;101354.03;10058616;29;19933;-68
2022/08/06 22:11:22;;;;;;;;;;;;;;;19.34;100.00;101353.47;10058459;29;19984;-67
2022/08/06 22:16:46;;;;;;;;;;;;;;;19.30;100.00;101361.50;10058225;29;19932;-68
2022/08/06 22:21:51;;;;;;;;;;;;;;;19.33;100.00;101367.53;10058156;29;20338;-67
2022/08/06 22:26:57;;;;;;;;;;;;;;;19.24;100.00;101367.75;10058655;29;19932;-67
2022/08/06 22:32:03;;;;;;;;;;;;;;;19.21;100.00;101374.88;10058123;29;19940;-70
2022/08/06 22:37:09;;;;;;;;;;;;;;;19.17;99.88;101375.91;10057943;29;19953;-72
2022/08/06 22:42:18;;;;;;;;;;;;;;;19.08;99.09;101379.66;10057646;29;19932;-70
2022/08/06 22:47:41;;;;;;;;;;;;;;;18.97;96.71;101384.34;10062547;29;19932;-68
2022/08/06 22:52:45;;;;;;;;;;;;;;;18.88;94.06;101376.72;10064825;29;19928;-72
2022/08/06 22:58:08;;;;;;;;;;;;;;;18.81;93.98;101388.31;10064706;29;19943;-63
2022/08/06 23:03:31;;;;;;;;;;;;;;;18.71;94.80;101392.09;10064571;29;19988;-64
2022/08/06 23:08:42;;;;;;;;;;;;;;;18.62;94.59;101387.06;10064319;29;19936;-68
2022/08/06 23:13:45;;;;;;;;;;;;;;;18.65;94.70;101401.91;10063675;29;19928;-66
2022/08/06 23:18:48;;;;;;;;;;;;;;;18.57;92.83;101396.00;10065756;29;19932;-75
2022/08/06 23:23:53;;;;;;;;;;;;;;;18.46;93.11;101392.78;10066870;29;20334;-70
2022/08/06 23:28:56;;;;;;;;;;;;;;;18.39;93.99;101398.19;10066668;29;19928;-72
2022/08/06 23:34:00;;;;;;;;;;;;;;;18.31;95.70;101396.63;10066092;29;20350;-73
2022/08/06 23:39:05;;;;;;;;;;;;;;;18.28;96.47;101402.84;10066091;29;19938;-69
2022/08/06 23:44:15;;;;;;;;;;;;;;;18.18;98.35;101411.84;10066225;29;19928;-67
2022/08/06 23:49:20;;;;;;;;;;;;;;;18.19;99.08;101408.31;10065934;29;19984;-71
2022/08/06 23:54:30;;;;;;;;;;;;;;;18.13;99.34;101404.97;9729017;29;10000593;-71
2022/08/06 23:59:33;;;;;;;;;;;;;;;18.08;100.00;101397.22;10062034;29;19958;-70
